createdAt,value
2022-12-28T00:01:18.504Z,97071.38
2022-12-28T00:06:35.901Z,97066.88
2022-12-28T00:09:03.788Z,97064.22
2022-12-28T00:11:31.793Z,97062.50
2022-12-28T00:14:00.173Z,97061.66
2022-12-28T00:16:27.115Z,97062.63
2022-12-28T00:18:55.022Z,97062.50
2022-12-28T00:21:22.795Z,97057.28
2022-12-28T00:23:53.702Z,97058.13
2022-12-28T00:26:25.385Z,97057.28
2022-12-28T00:28:53.514Z,97046.63
2022-12-28T00:31:22.109Z,97044.81
2022-12-28T00:33:48.743Z,97037.00
2022-12-28T00:36:15.938Z,97042.13
2022-12-28T00:38:43.346Z,97030.72
2022-12-28T00:41:10.820Z,97030.63
2022-12-28T00:43:37.865Z,97036.81
2022-12-28T00:46:04.741Z,97018.31
2022-12-28T00:48:34.075Z,97035.47
2022-12-28T00:51:05.806Z,97028.44
2022-12-28T00:53:32.931Z,97033.03
2022-12-28T00:56:06.724Z,97031.28
2022-12-28T00:58:33.659Z,97030.53
2022-12-28T01:01:00.687Z,97031.28
2022-12-28T01:03:28.604Z,97027.78
2022-12-28T01:05:55.407Z,97034.81
2022-12-28T01:08:22.088Z,97025.03
2022-12-28T01:10:49.840Z,97021.69
2022-12-28T01:13:16.416Z,97035.56
2022-12-28T01:15:42.968Z,97025.78
2022-12-28T01:18:09.596Z,97028.44
2022-12-28T01:20:40.394Z,97026.63
2022-12-28T01:23:07.296Z,97033.78
2022-12-28T01:25:34.340Z,97032.91
2022-12-28T01:28:01.082Z,97020.53
2022-12-28T01:30:30.514Z,97023.13
2022-12-28T01:33:01.118Z,97029.28
2022-12-28T01:35:29.849Z,97022.22
2022-12-28T01:37:57.171Z,97025.78
2022-12-28T01:40:23.742Z,97015.13
2022-12-28T01:42:50.314Z,97004.47
2022-12-28T01:45:19.782Z,97004.47
2022-12-28T01:47:49.959Z,96991.13
2022-12-28T01:50:20.202Z,96994.72
2022-12-28T01:52:55.994Z,96988.66
2022-12-28T01:55:25.954Z,96984.06
2022-12-28T01:58:03.062Z,96993.03
2022-12-28T02:00:29.742Z,96985.03
2022-12-28T02:03:09.164Z,96974.47
2022-12-28T02:05:41.603Z,96981.50
2022-12-28T02:08:23.259Z,96970.84
2022-12-28T02:10:50.783Z,96971.81
2022-12-28T02:13:18.253Z,96954.94
2022-12-28T02:15:45.749Z,96957.59
2022-12-28T02:18:13.463Z,96954.09
2022-12-28T02:21:01.032Z,96950.47
2022-12-28T02:23:38.303Z,96951.41
2022-12-28T02:26:29.094Z,96955.91
2022-12-28T02:29:17.944Z,96952.16
2022-12-28T02:31:52.851Z,96949.50
2022-12-28T02:34:47.429Z,96924.59
2022-12-28T02:37:19.749Z,96941.59
2022-12-28T02:39:55.121Z,96938.00
2022-12-28T02:42:23.526Z,96928.28
2022-12-28T02:45:08.644Z,96939.50
2022-12-28T02:47:54.090Z,96943.59
2022-12-28T02:50:32.684Z,96937.00
2022-12-28T02:53:16.551Z,96933.94
2022-12-28T02:56:10.579Z,96933.53
2022-12-28T02:59:07.204Z,96927.03
2022-12-28T03:01:56.461Z,96933.47
2022-12-28T03:04:37.061Z,96927.81
2022-12-28T03:07:33.470Z,96915.91
2022-12-28T03:10:11.064Z,96920.84
2022-12-28T03:12:54.427Z,96921.41
2022-12-28T03:15:30.100Z,96909.56
2022-12-28T03:18:21.406Z,96915.41
2022-12-28T03:21:08.808Z,96912.44
2022-12-28T03:23:54.536Z,96916.53
2022-12-28T03:26:42.062Z,96927.72
2022-12-28T03:29:31.393Z,96924.75
2022-12-28T03:31:58.922Z,96919.09
2022-12-28T03:34:25.528Z,96913.41
2022-12-28T03:37:12.408Z,96903.38
2022-12-28T03:39:51.183Z,96901.25
2022-12-28T03:42:46.229Z,96901.91
2022-12-28T03:45:46.389Z,96892.56
2022-12-28T03:48:16.320Z,96900.28
2022-12-28T03:50:46.090Z,96899.13
2022-12-28T03:53:21.194Z,96895.28
2022-12-28T03:55:50.313Z,96892.28
2022-12-28T03:58:21.170Z,96892.81
2022-12-28T04:00:49.520Z,96893.22
2022-12-28T04:03:17.170Z,96889.59
2022-12-28T04:05:45.618Z,96884.66
2022-12-28T04:08:12.542Z,96885.28
2022-12-28T04:10:39.841Z,96887.50
2022-12-28T04:13:08.747Z,96889.03
2022-12-28T04:15:45.039Z,96884.06
2022-12-28T04:18:11.878Z,96888.97
2022-12-28T04:20:39.142Z,96882.41
2022-12-28T04:23:06.462Z,96885.63
2022-12-28T04:25:34.035Z,96885.31
2022-12-28T04:28:01.213Z,96887.66
2022-12-28T04:30:46.791Z,96888.16
2022-12-28T04:33:13.408Z,96880.66
2022-12-28T04:35:42.723Z,96875.41
2022-12-28T04:38:10.262Z,96890.03
2022-12-28T04:40:36.819Z,96888.00
2022-12-28T04:43:03.517Z,96878.88
2022-12-28T04:45:30.437Z,96883.03
2022-12-28T04:47:57.955Z,96880.97
2022-12-28T04:50:26.168Z,96882.44
2022-12-28T04:52:52.830Z,96884.78
2022-12-28T04:55:32.483Z,96885.28
2022-12-28T04:58:00.422Z,96890.28
2022-12-28T05:00:27.282Z,96883.09
2022-12-28T05:02:53.967Z,96886.06
2022-12-28T05:05:20.575Z,96890.25
2022-12-28T05:07:47.190Z,96890.00
2022-12-28T05:10:13.703Z,96878.06
2022-12-28T05:12:40.316Z,96877.75
2022-12-28T05:15:07.299Z,96872.03
2022-12-28T05:17:34.056Z,96858.41
2022-12-28T05:20:00.696Z,96850.13
2022-12-28T05:22:27.859Z,96854.25
2022-12-28T05:24:54.387Z,96862.91
2022-12-28T05:27:21.164Z,96858.16
2022-12-28T05:29:47.747Z,96865.09
2022-12-28T05:32:14.368Z,96856.84
2022-12-28T05:34:42.076Z,96860.97
2022-12-28T05:37:08.745Z,96872.19
2022-12-28T05:39:35.344Z,96863.91
2022-12-28T05:42:02.765Z,96869.03
2022-12-28T05:44:30.323Z,96881.31
2022-12-28T05:46:58.046Z,96878.28
2022-12-28T05:49:24.647Z,96879.03
2022-12-28T05:51:52.342Z,96879.63
2022-12-28T05:54:19.763Z,96875.78
2022-12-28T05:56:46.620Z,96864.78
2022-12-28T05:59:13.739Z,96873.56
2022-12-28T06:01:41.257Z,96864.44
2022-12-28T06:04:15.210Z,96868.69
2022-12-28T06:06:42.166Z,96874.53
2022-12-28T06:09:08.733Z,96863.56
2022-12-28T06:11:35.379Z,96854.41
2022-12-28T06:14:03.829Z,96856.25
2022-12-28T06:16:33.039Z,96863.78
2022-12-28T06:19:00.137Z,96867.91
2022-12-28T06:21:32.077Z,96858.91
2022-12-28T06:24:00.052Z,96864.00
2022-12-28T06:26:28.698Z,96838.59
2022-12-28T06:28:55.965Z,96845.88
2022-12-28T06:31:24.584Z,96851.00
2022-12-28T06:33:56.227Z,96852.72
2022-12-28T06:36:30.794Z,96851.59
2022-12-28T06:38:58.901Z,96848.91
2022-12-28T06:41:27.382Z,96831.16
2022-12-28T06:43:54.126Z,96826.16
2022-12-28T06:46:21.872Z,96817.53
2022-12-28T06:48:50.509Z,96816.78
2022-12-28T06:51:19.579Z,96809.59
2022-12-28T06:53:47.616Z,96804.00
2022-12-28T06:56:16.567Z,96789.75
2022-12-28T06:58:43.725Z,96799.84
2022-12-28T07:01:18.981Z,96798.53
2022-12-28T07:03:47.235Z,96790.72
2022-12-28T07:06:15.731Z,96799.97
2022-12-28T07:08:43.282Z,96800.28
2022-12-28T07:11:15.436Z,96786.66
2022-12-28T07:13:42.270Z,96799.06
2022-12-28T07:16:14.462Z,96785.81
2022-12-28T07:18:42.109Z,96793.09
2022-12-28T07:21:14.303Z,96794.19
2022-12-28T07:23:41.133Z,96808.63
2022-12-28T07:26:09.931Z,96828.84
2022-12-28T07:28:38.359Z,96837.97
2022-12-28T07:31:06.823Z,96838.94
2022-12-28T07:33:34.843Z,96841.84
2022-12-28T07:36:08.547Z,96844.81
2022-12-28T07:38:35.420Z,96844.19
2022-12-28T07:41:03.215Z,96844.81
2022-12-28T07:43:30.435Z,96830.22
2022-12-28T07:46:09.279Z,96838.22
2022-12-28T07:48:37.159Z,96827.00
2022-12-28T07:51:16.237Z,96841.28
2022-12-28T07:53:44.643Z,96842.34
2022-12-28T07:56:11.892Z,96836.88
2022-12-28T07:58:38.875Z,96841.25
2022-12-28T08:01:13.762Z,96844.91
2022-12-28T08:03:41.382Z,96850.38
2022-12-28T08:06:12.052Z,96855.75
2022-12-28T08:08:41.317Z,96860.25
2022-12-28T08:11:13.114Z,96854.78
2022-12-28T08:13:41.724Z,96861.00
2022-12-28T08:16:12.887Z,96855.88
2022-12-28T08:18:40.528Z,96861.84
2022-12-28T08:21:21.885Z,96862.09
2022-12-28T08:23:49.599Z,96866.47
2022-12-28T08:26:19.939Z,96860.38
2022-12-28T08:28:49.023Z,96862.44
2022-12-28T08:31:27.052Z,96862.72
2022-12-28T08:33:55.278Z,96862.84
2022-12-28T08:36:22.041Z,96854.06
2022-12-28T08:38:48.726Z,96852.22
2022-12-28T08:41:17.630Z,96847.59
2022-12-28T08:43:45.669Z,96838.72
2022-12-28T08:46:16.328Z,96837.88
2022-12-28T08:48:43.170Z,96831.06
2022-12-28T08:51:15.123Z,96828.38
2022-12-28T08:53:42.360Z,96820.44
2022-12-28T08:56:12.987Z,96820.44
2022-12-28T08:58:40.906Z,96819.59
2022-12-28T09:01:13.775Z,96808.16
2022-12-28T09:03:42.561Z,96807.28
2022-12-28T09:06:14.640Z,96802.03
2022-12-28T09:08:42.573Z,96795.13
2022-12-28T09:11:13.174Z,96798.63
2022-12-28T09:13:40.302Z,96794.16
2022-12-28T09:16:15.293Z,96795.13
2022-12-28T09:18:43.408Z,96791.97
2022-12-28T09:21:19.769Z,96791.09
2022-12-28T09:23:46.882Z,96788.28
2022-12-28T09:26:16.442Z,96778.06
2022-12-28T09:28:50.888Z,96772.97
2022-12-28T09:31:18.843Z,96769.91
2022-12-28T09:36:47.634Z,96757.63
2022-12-28T09:39:17.678Z,96759.19
2022-12-28T09:41:57.893Z,96754.84
2022-12-28T09:44:36.309Z,96753.97
2022-12-28T09:47:12.488Z,96755.78
2022-12-28T09:49:50.403Z,96750.56
2022-12-28T09:52:49.669Z,96762.25
2022-12-28T09:55:18.469Z,96750.69
2022-12-28T09:57:50.549Z,96741.78
2022-12-28T10:00:25.771Z,96740.09
2022-12-28T10:02:59.695Z,96733.03
2022-12-28T10:05:27.850Z,96731.34
2022-12-28T10:07:55.232Z,96721.72
2022-12-28T10:10:23.004Z,96724.53
2022-12-28T10:12:50.390Z,96722.22
2022-12-28T10:15:17.544Z,96719.41
2022-12-28T10:17:44.998Z,96708.72
2022-12-28T10:20:17.162Z,96709.66
2022-12-28T10:22:50.044Z,96699.94
2022-12-28T10:25:20.995Z,96701.91
2022-12-28T10:27:47.582Z,96700.19
2022-12-28T10:30:26.624Z,96695.81
2022-12-28T10:33:02.144Z,96687.19
2022-12-28T10:35:30.665Z,96688.75
2022-12-28T10:38:06.088Z,96680.00
2022-12-28T10:40:35.448Z,96675.63
2022-12-28T10:43:07.033Z,96677.44
2022-12-28T10:45:46.644Z,96672.56
2022-12-28T10:48:16.780Z,96661.50
2022-12-28T10:50:56.920Z,96638.28
2022-12-28T10:53:32.372Z,96624.38
2022-12-28T10:56:11.062Z,96621.34
2022-12-28T10:58:41.883Z,96615.34
2022-12-28T11:01:14.416Z,96610.94
2022-12-28T11:03:44.448Z,96601.09
2022-12-28T11:06:14.221Z,96601.66
2022-12-28T11:08:42.160Z,96602.13
2022-12-28T11:11:21.010Z,96598.13
2022-12-28T11:13:55.639Z,96606.44
2022-12-28T11:16:22.811Z,96600.84
2022-12-28T11:18:49.699Z,96586.34
2022-12-28T11:21:20.253Z,96585.22
2022-12-28T11:23:48.322Z,96575.25
2022-12-28T11:26:14.975Z,96578.75
2022-12-28T11:28:42.864Z,96588.59
2022-12-28T11:31:18.654Z,96586.03
2022-12-28T11:33:46.127Z,96592.22
2022-12-28T11:36:15.415Z,96577.38
2022-12-28T11:38:44.262Z,96581.88
2022-12-28T11:41:34.107Z,96577.50
2022-12-28T11:44:04.541Z,96579.44
2022-12-28T11:46:31.039Z,96573.47
2022-12-28T11:49:03.610Z,96569.22
2022-12-28T11:51:36.633Z,96562.16
2022-12-28T11:54:38.334Z,96562.28
2022-12-28T11:57:05.142Z,96559.72
2022-12-28T11:59:35.760Z,96556.31
2022-12-28T12:02:07.964Z,96545.88
2022-12-28T12:04:37.422Z,96545.88
2022-12-28T12:07:04.493Z,96544.19
2022-12-28T12:09:32.707Z,96544.28
2022-12-28T12:12:29.749Z,96535.56
2022-12-28T12:15:02.837Z,96530.22
2022-12-28T12:17:42.685Z,96524.97
2022-12-28T12:21:00.078Z,96521.47
2022-12-28T12:23:39.340Z,96500.59
2022-12-28T12:26:27.630Z,96513.56
2022-12-28T12:29:07.966Z,96506.41
2022-12-28T12:31:41.185Z,96503.13
2022-12-28T12:34:19.558Z,96491.59
2022-12-28T12:37:11.651Z,96489.91
2022-12-28T12:40:00.433Z,96478.38
2022-12-28T12:42:45.296Z,96473.19
2022-12-28T12:45:45.191Z,96469.63
2022-12-28T12:48:29.717Z,96466.22
2022-12-28T12:51:19.539Z,96468.06
2022-12-28T12:54:01.556Z,96462.78
2022-12-28T12:56:51.395Z,96463.56
2022-12-28T12:59:27.286Z,96468.16
2022-12-28T13:02:16.906Z,96462.72
2022-12-28T13:04:46.052Z,96451.09
2022-12-28T13:07:26.522Z,96451.72
2022-12-28T13:09:55.118Z,96439.81
2022-12-28T13:12:21.831Z,96443.22
2022-12-28T13:15:02.280Z,96442.00
2022-12-28T13:17:31.845Z,96440.91
2022-12-28T13:20:18.312Z,96438.34
2022-12-28T13:22:46.241Z,96428.56
2022-12-28T13:25:32.399Z,96430.13
2022-12-28T13:28:01.793Z,96438.03
2022-12-28T13:30:29.718Z,96438.75
2022-12-28T13:32:59.307Z,96427.34
2022-12-28T13:35:28.078Z,96438.50
2022-12-28T13:38:03.896Z,96435.72
2022-12-28T13:40:32.017Z,96437.28
2022-12-28T13:43:30.263Z,96439.03
2022-12-28T13:46:08.073Z,96440.81
2022-12-28T13:48:42.038Z,96429.19
2022-12-28T13:51:12.443Z,96436.25
2022-12-28T13:53:44.554Z,96437.09
2022-12-28T13:56:13.473Z,96439.53
2022-12-28T13:58:48.400Z,96428.84
2022-12-28T14:01:18.245Z,96435.88
2022-12-28T14:03:46.557Z,96428.09
2022-12-28T14:06:15.594Z,96428.59
2022-12-28T14:08:42.496Z,96424.97
2022-12-28T14:11:09.927Z,96430.31
2022-12-28T14:13:38.337Z,96423.13
2022-12-28T14:16:05.775Z,96426.66
2022-12-28T14:18:36.282Z,96416.09
2022-12-28T14:21:04.185Z,96417.69
2022-12-28T14:23:36.524Z,96413.19
2022-12-28T14:26:05.770Z,96411.34
2022-12-28T14:28:39.212Z,96399.34
2022-12-28T14:31:08.351Z,96409.66
2022-12-28T14:33:37.540Z,96415.84
2022-12-28T14:36:06.106Z,96414.88
2022-12-28T14:38:41.077Z,96420.97
2022-12-28T14:41:07.683Z,96422.66
2022-12-28T14:43:36.005Z,96418.16
2022-12-28T14:46:30.944Z,96419.97
2022-12-28T14:48:58.996Z,96418.03
2022-12-28T14:51:35.825Z,96417.19
2022-12-28T14:54:25.997Z,96412.69
2022-12-28T14:57:01.632Z,96410.88
2022-12-28T14:59:31.780Z,96409.19
2022-12-28T15:01:58.524Z,96398.38
2022-12-28T15:04:46.163Z,96401.06
2022-12-28T15:07:13.256Z,96400.06
2022-12-28T15:09:40.412Z,96396.06
2022-12-28T15:12:20.483Z,96401.78
2022-12-28T15:14:48.253Z,96389.75
2022-12-28T15:17:15.505Z,96387.56
2022-12-28T15:19:43.030Z,96391.81
2022-12-28T15:22:09.891Z,96385.38
2022-12-28T15:24:36.597Z,96392.53
2022-12-28T15:27:03.612Z,96389.25
2022-12-28T15:32:16.843Z,96386.09
2022-12-28T15:34:43.461Z,96386.97
2022-12-28T15:37:10.027Z,96369.22
2022-12-28T15:39:36.655Z,96381.63
2022-12-28T15:42:03.511Z,96382.59
2022-12-28T15:44:30.123Z,96374.56
2022-12-28T15:46:56.829Z,96369.22
2022-12-28T15:49:23.407Z,96374.56
2022-12-28T15:51:50.024Z,96369.22
2022-12-28T15:54:16.664Z,96365.72
2022-12-28T15:56:43.294Z,96361.22
2022-12-28T15:59:13.924Z,96358.66
2022-12-28T16:01:43.102Z,96364.13
2022-12-28T16:04:11.475Z,96366.56
2022-12-28T16:06:43.904Z,96363.03
2022-12-28T16:09:12.465Z,96360.38
2022-12-28T16:11:41.554Z,96371.91
2022-12-28T16:14:14.721Z,96371.06
2022-12-28T16:16:42.143Z,96363.16
2022-12-28T16:19:12.482Z,96364.00
2022-12-28T16:21:40.102Z,96366.69
2022-12-28T16:24:07.514Z,96365.00
2022-12-28T16:26:34.183Z,96360.59
2022-12-28T16:29:01.371Z,96359.75
2022-12-28T16:31:31.086Z,96358.91
2022-12-28T16:33:59.858Z,96364.38
2022-12-28T16:36:27.006Z,96357.31
2022-12-28T16:38:53.855Z,96361.72
2022-12-28T16:41:21.210Z,96360.00
2022-12-28T16:43:49.513Z,96352.97
2022-12-28T16:46:16.780Z,96342.28
2022-12-28T16:48:43.406Z,96344.97
2022-12-28T16:51:10.047Z,96343.25
2022-12-28T16:53:38.594Z,96344.13
2022-12-28T16:56:06.078Z,96338.91
2022-12-28T16:58:33.357Z,96337.06
2022-12-28T17:01:08.574Z,96325.13
2022-12-28T17:03:37.267Z,96332.72
2022-12-28T17:06:04.167Z,96332.81
2022-12-28T17:08:30.892Z,96331.00
2022-12-28T17:10:59.795Z,96329.16
2022-12-28T17:13:26.593Z,96324.81
2022-12-28T17:15:53.309Z,96325.78
2022-12-28T17:18:19.958Z,96328.44
2022-12-28T17:20:46.505Z,96322.25
2022-12-28T17:23:13.297Z,96325.88
2022-12-28T17:25:39.962Z,96321.41
2022-12-28T17:28:06.604Z,96324.09
2022-12-28T17:30:33.845Z,96307.53
2022-12-28T17:33:00.467Z,96311.69
2022-12-28T17:35:27.476Z,96312.66
2022-12-28T17:37:54.026Z,96306.59
2022-12-28T17:40:20.724Z,96308.53
2022-12-28T17:42:47.377Z,96309.38
2022-12-28T17:45:13.944Z,96305.84
2022-12-28T17:47:40.599Z,96298.09
2022-12-28T17:50:08.300Z,96300.88
2022-12-28T17:52:35.219Z,96291.41
2022-12-28T17:55:03.402Z,96292.38
2022-12-28T17:57:32.848Z,96296.75
2022-12-28T18:00:04.163Z,96292.25
2022-12-28T18:02:39.445Z,96284.50
2022-12-28T18:05:07.369Z,96282.66
2022-12-28T18:07:34.117Z,96283.66
2022-12-28T18:10:00.731Z,96294.56
2022-12-28T18:12:27.735Z,96290.91
2022-12-28T18:14:54.269Z,96296.25
2022-12-28T18:17:23.475Z,96283.78
2022-12-28T18:19:52.795Z,96283.78
2022-12-28T18:22:20.739Z,96281.09
2022-12-28T18:24:47.394Z,96273.09
2022-12-28T18:27:13.929Z,96276.72
2022-12-28T18:29:42.907Z,96272.38
2022-12-28T18:32:09.502Z,96276.84
2022-12-28T18:34:36.219Z,96276.84
2022-12-28T18:37:02.937Z,96274.31
2022-12-28T18:39:29.496Z,96266.41
2022-12-28T18:41:56.270Z,96270.91
2022-12-28T18:44:23.911Z,96271.75
2022-12-28T18:46:50.558Z,96273.59
2022-12-28T18:49:17.714Z,96263.88
2022-12-28T18:51:44.218Z,96279.88
2022-12-28T18:54:10.816Z,96269.22
2022-12-28T18:56:37.408Z,96273.69
2022-12-28T18:59:04.075Z,96270.19
2022-12-28T19:02:05.195Z,96269.31
2022-12-28T19:04:17.819Z,96272.97
2022-12-28T19:06:44.941Z,96256.09
2022-12-28T19:09:12.316Z,96257.91
2022-12-28T19:11:40.212Z,96247.63
2022-12-28T19:14:09.746Z,96245.56
2022-12-28T19:16:36.548Z,96248.47
2022-12-28T19:19:03.763Z,96242.16
2022-12-28T19:21:36.200Z,96242.16
2022-12-28T19:24:05.121Z,96238.78
2022-12-28T19:26:32.580Z,96245.78
2022-12-28T19:28:59.305Z,96235.22
2022-12-28T19:31:26.736Z,96230.75
2022-12-28T19:33:53.668Z,96231.72
2022-12-28T19:36:20.277Z,96224.69
2022-12-28T19:38:47.203Z,96215.94
2022-12-28T19:41:15.474Z,96215.81
2022-12-28T19:43:42.966Z,96214.97
2022-12-28T19:46:30.451Z,96207.09
2022-12-28T19:49:01.544Z,96195.56
2022-12-28T19:51:31.681Z,96194.75
2022-12-28T19:53:59.244Z,96191.19
2022-12-28T19:56:25.948Z,96186.84
2022-12-28T19:58:54.433Z,96186.84
2022-12-28T20:01:25.553Z,96187.81
2022-12-28T20:03:52.828Z,96178.13
2022-12-28T20:06:22.290Z,96179.06
2022-12-28T20:08:54.080Z,96183.47
2022-12-28T20:11:21.918Z,96176.56
2022-12-28T20:13:59.401Z,96176.56
2022-12-28T20:16:27.942Z,96180.06
2022-12-28T20:18:54.887Z,96172.41
2022-12-28T20:21:23.612Z,96163.44
2022-12-28T20:23:51.002Z,96158.09
2022-12-28T20:26:18.926Z,96164.28
2022-12-28T20:28:46.389Z,96151.94
2022-12-28T20:31:14.375Z,96151.06
2022-12-28T20:33:41.976Z,96159.06
2022-12-28T20:36:13.249Z,96161.16
2022-12-28T20:38:39.882Z,96158.22
2022-12-28T20:41:34.895Z,96159.06
2022-12-28T20:44:09.683Z,96156.41
2022-12-28T20:46:36.431Z,96155.44
2022-12-28T20:49:03.560Z,96151.94
2022-12-28T20:51:30.243Z,96160.78
2022-12-28T20:53:56.910Z,96159.06
2022-12-28T20:56:23.806Z,96157.28
2022-12-28T20:58:50.553Z,96154.00
2022-12-28T21:01:17.393Z,96148.53
2022-12-28T21:03:45.445Z,96155.44
2022-12-28T21:06:12.377Z,96150.09
2022-12-28T21:08:38.916Z,96146.44
2022-12-28T21:11:06.829Z,96148.28
2022-12-28T21:13:33.544Z,96142.94
2022-12-28T21:16:04.591Z,96147.44
2022-12-28T21:18:35.572Z,96110.47
2022-12-28T21:21:02.370Z,96135.91
2022-12-28T21:23:31.265Z,96134.22
2022-12-28T21:26:05.943Z,96127.91
2022-12-28T21:28:33.744Z,96125.25
2022-12-28T21:31:03.550Z,96122.59
2022-12-28T21:33:30.791Z,96112.25
2022-12-28T21:36:09.820Z,96114.56
2022-12-28T21:38:38.761Z,96116.38
2022-12-28T21:41:08.037Z,96116.38
2022-12-28T21:43:34.856Z,96108.53
2022-12-28T21:46:03.604Z,96108.63
2022-12-28T21:48:32.369Z,96090.69
2022-12-28T21:51:27.578Z,96101.13
2022-12-28T21:53:54.756Z,96100.41
2022-12-28T21:56:21.281Z,96096.63
2022-12-28T21:58:48.064Z,96087.31
2022-12-28T22:01:33.016Z,96097.59
2022-12-28T22:04:18.102Z,96104.63
2022-12-28T22:06:44.700Z,96106.31
2022-12-28T22:09:29.675Z,96108.03
2022-12-28T22:12:17.412Z,96099.19
2022-12-28T22:14:44.669Z,96103.66
2022-12-28T22:17:14.461Z,96097.47
2022-12-28T22:19:41.385Z,96096.63
2022-12-28T22:22:08.116Z,96095.81
2022-12-28T22:24:34.960Z,96084.25
2022-12-28T22:27:02.399Z,96083.41
2022-12-28T22:29:29.066Z,96085.25
2022-12-28T22:31:55.727Z,96076.75
2022-12-28T22:34:22.393Z,96074.69
2022-12-28T22:36:48.979Z,96079.19
2022-12-28T22:39:15.940Z,96077.34
2022-12-28T22:41:42.676Z,96081.00
2022-12-28T22:44:09.814Z,96081.00
2022-12-28T22:46:36.464Z,96079.19
2022-12-28T22:49:03.258Z,96074.09
2022-12-28T22:51:29.807Z,96075.69
2022-12-28T22:53:56.322Z,96073.13
2022-12-28T22:56:23.600Z,96067.78
2022-12-28T22:58:50.191Z,96063.41
2022-12-28T23:01:18.618Z,96046.97
2022-12-28T23:03:47.119Z,96059.78
2022-12-28T23:06:15.675Z,96053.63
2022-12-28T23:08:42.375Z,96060.75
2022-12-28T23:11:32.204Z,96049.25
2022-12-28T23:14:18.819Z,96047.41
2022-12-28T23:16:45.497Z,96043.91
2022-12-28T23:19:31.042Z,96051.19
2022-12-28T23:22:16.402Z,96049.25
2022-12-28T23:25:01.640Z,96051.91
2022-12-28T23:27:38.688Z,96049.97
2022-12-28T23:30:08.533Z,96035.78
2022-12-28T23:32:35.397Z,96028.13
2022-12-28T23:35:04.734Z,96041.34
2022-12-28T23:37:31.530Z,96029.84
2022-12-28T23:39:58.114Z,96038.81
2022-12-28T23:42:24.701Z,96025.63
2022-12-28T23:44:51.563Z,96028.13
2022-12-28T23:47:19.274Z,96019.28
2022-12-28T23:49:48.115Z,96024.75
2022-12-28T23:52:15.119Z,96017.63
2022-12-28T23:54:41.748Z,96013.22
2022-12-28T23:57:08.337Z,96009.69
2022-12-28T23:59:34.969Z,96010.53
